Maria Desgagnes — VCWL — position and weather

sailwx.info

Track history (hours):
 
Tides and Currents Weather Stations Pressure Air Temp Water Temp Dewpoint Dewpoint Depression Visibility Wind Speed Wind Dir Waves Ship Positions

Maria Desgagnes

Last reported at 2017-Dec-11 15:00 UTC. Time now 2017-Dec-14 09:50 UTC.
Position N 49°12' W 059°06'.

Length 120 m; draft 7.3 m.

Type: Ship. MMSI: 316285000.

Wind from 250 at 28 knots

Barometer 1010.8 mb
Air temperature -1.9 ° C
Dewpoint -0.8 ° C
Water temperature 3.9 ° C

Date/timePositionNaut miles runAvg speedWind from/ knotsBaromVisibWave heightAir tempDewpointWater temp
2017-Dec-11 15:00N 49°12' W 059°06'12 3.9 250 / 281010.8 -1.9-0.8 3.9
2017-Dec-11 12:00N 49°12' W 058°48'12 3.9 270 / 301007.0 -1.0 0.2 4.2
2017-Dec-11 09:00N 49°12' W 058°30'6 6.7 250 / 261004.9 -0.1 1.1 4.5
2017-Dec-11 08:04N 49°09' W 058°21'1 9.1
2017-Dec-11 07:59N 49°09' W 058°21'712.7
2017-Dec-11 07:24N 49°05' W 058°12'512.8
2017-Dec-11 07:00N 49°01' W 058°06'4 8.8
2017-Dec-11 06:30N 48°58' W 058°01'0 0.4
2017-Dec-11 06:00N 48°58' W 058°01'4264.5
2017-Dec-11 06:00N 48°54' W 058°00'4 7.8 290 / 71004.7 0.3 1.5
2017-Dec-11 05:29N 48°58' W 058°01'0 0.0
2017-Dec-11 04:59N 48°58' W 058°01'0 0.0
2017-Dec-11 04:29N 48°58' W 058°01'0 0.0
2017-Dec-11 03:59N 48°58' W 058°01'0 0.0
2017-Dec-11 03:29N 48°58' W 058°01'4 7.8
2017-Dec-11 03:00N 48°54' W 058°00'43504.9 270 / 81001.1 0.3 1.5
2017-Dec-11 02:59N 48°58' W 058°01'0 0.0
2017-Dec-11 02:29N 48°58' W 058°01'0 0.0
2017-Dec-11 01:59N 48°58' W 058°01'0 0.0
2017-Dec-11 01:29N 48°58' W 058°01'0 0.0
2017-Dec-11 00:59N 48°58' W 058°01'0 0.0
2017-Dec-11 00:29N 48°58' W 058°01'4 7.8
2017-Dec-11 00:00N 48°54' W 058°00'43504.9 290 / 7996.3 0.5 1.7
2017-Dec-10 23:59N 48°58' W 058°01'0 0.0
2017-Dec-10 23:29N 48°58' W 058°01'0 0.0
2017-Dec-10 22:59N 48°58' W 058°01'0 0.0
2017-Dec-10 22:29N 48°58' W 058°01'0 0.0
2017-Dec-10 21:59N 48°58' W 058°01'0 0.0
2017-Dec-10 21:29N 48°58' W 058°01'4 7.8
2017-Dec-10 21:00N 48°54' W 058°00'42803.9 260 / 12988.8 2.0 3.3
2017-Dec-10 20:59N 48°58' W 058°01'0 0.0
2017-Dec-10 20:29N 48°58' W 058°01'0 0.4
2017-Dec-10 20:00N 48°58' W 058°00'2 3.5
2017-Dec-10 19:30N 48°59' W 058°03'4 8.6
2017-Dec-10 19:00N 49°02' W 058°07'1110.4
2017-Dec-10 18:00N 49°12' W 058°12'7 2.4 200 / 23979.7 10.011.3 4.7
2017-Dec-10 15:00N 49°18' W 058°18'0 0.0 140 / 43980.8 5.5 6.8
2017-Dec-10 14:00N 49°18' W 058°18'0 0.0 140 / 43981.3 5.6 6.9 4.9
2017-Dec-10 12:00N 49°18' W 058°18'0 0.0 120 / 39991.1 4.1 5.3
2017-Dec-10 09:00N 49°18' W 058°18'0 0.0 120 / 301000.8 2.5 3.7
2017-Dec-10 06:00N 49°18' W 058°18'4013.2 110 / 191009.9 -1.0 0.2 4.4
2017-Dec-10 03:00N 49°24' W 059°18'4314.4 130 / 131014.4 1.6 2.9 3.6
2017-Dec-10 00:00N 49°30' W 060°24'3913.1 180 / 131016.6 1.5 2.7 3.5
2017-Dec-09 21:00N 49°36' W 061°24'3712.3 200 / 191016.4 1.5 2.7 3.2
2017-Dec-09 18:00N 49°48' W 062°18'28 9.2 210 / 171015.0 1.3 2.6 2.5
2017-Dec-09 15:00N 49°54' W 063°00'27 9.0 190 / 161015.1 -1.3-0.1 2.3
2017-Dec-09 12:00N 49°54' W 063°42'28 9.2 170 / 121013.9 -3.0-1.9 1.3
2017-Dec-09 09:00N 50°00' W 064°24'3110.3 230 / 51013.3 -2.5-1.3 1.2
2017-Dec-09 06:00N 50°00' W 065°12'4615.4 280 / 111012.5 -3.2-2.1 1.3
2017-Dec-09 03:00N 50°00' W 066°24'15 5.1 280 / 161011.9 -4.3-3.2 1.4
2017-Dec-09 00:00N 50°00' W 066°48'0 0.0 250 / 71010.6 -4.5-3.4
2017-Dec-08 21:00N 50°00' W 066°48'0 0.0 240 / 41009.3 -3.1-2.0
2017-Dec-08 18:00N 50°00' W 066°48'0 0.0 260 / 61008.3 -4.0-2.9
2017-Dec-08 15:00N 50°00' W 066°48'0 0.0 280 / 31009.1 -6.4-5.3
2017-Dec-08 12:00N 50°00' W 066°48'0 0.0 280 / 51007.7 -8.2-7.2
2017-Dec-08 09:00N 50°00' W 066°48'0 0.0 280 / 21006.2 -6.6-5.5
2017-Dec-08 06:00N 50°00' W 066°48'25 8.4 260 / 61004.8 -6.3-5.2 1.8
2017-Dec-08 03:00N 49°36' W 067°00'3612.1 240 / 131004.8 -3.7-2.6 1.5
2017-Dec-08 00:00N 49°12' W 067°42'4013.2 260 / 191005.2 -1.9-0.8 1.5
2017-Dec-07 21:00N 48°48' W 068°30'4013.3 240 / 221004.6 -0.9 0.3 1.6
2017-Dec-07 18:00N 48°24' W 069°18'4816.1 270 / 151005.1 -0.3 0.9 1.9
2017-Dec-07 15:00N 47°42' W 069°54'4113.8 240 / 191006.7 -0.2 1.0 2.2
2017-Dec-07 12:00N 47°12' W 070°36'3411.4 210 / 151005.8 0.5 1.7 2.7
2017-Dec-07 09:00N 46°48' W 071°12'0 0.0 230 / 121006.5 0.9 2.1
2017-Dec-07 06:00N 46°48' W 071°12'0 0.0 220 / 161006.1 1.0 2.2
2017-Dec-07 03:00N 46°48' W 071°12'0 0.0 230 / 141005.8 1.5 2.7
2017-Dec-07 00:00N 46°48' W 071°12'0 0.0 240 / 81006.9 1.1 2.3
2017-Dec-06 21:00N 46°48' W 071°12'0 0.0 220 / 131006.6 1.9 3.1
2017-Dec-06 18:00N 46°48' W 071°12'0 0.0 240 / 111006.3 2.5 3.8
2017-Dec-06 15:00N 46°48' W 071°12'0 0.0 240 / 171007.1 2.5 3.7
2017-Dec-06 12:00N 46°48' W 071°12'0 0.0 230 / 201005.3 3.4 4.7
2017-Dec-06 09:00N 46°48' W 071°12'0 0.0 220 / 161003.8 5.6 6.9 3.9
2017-Dec-06 06:00N 46°48' W 071°12'0 0.0 050 / 61002.1 5.2 6.4
2017-Dec-06 03:00N 46°48' W 071°12'0 0.0 060 / 91006.7 4.9 6.1
2017-Dec-06 00:00N 46°48' W 071°12'0 0.0 060 / 61009.7 4.7 6.0
2017-Dec-05 21:00N 46°48' W 071°12'0 0.0 070 / 81011.9 3.3 4.5
2017-Dec-05 18:00N 46°48' W 071°12'0 0.0 060 / 61016.8 2.7 3.9
2017-Dec-05 15:00N 46°48' W 071°12'0 0.0 050 / 111021.2 0.8 2.0
2017-Dec-05 12:00N 46°48' W 071°12'0 0.0 050 / 141023.6 -0.2 1.0
2017-Dec-05 09:00N 46°48' W 071°12'0 0.0 050 / 181025.7 0.5 1.7
2017-Dec-05 06:00N 46°48' W 071°12'0 0.0 050 / 151027.3 0.2 1.4
2017-Dec-05 03:00N 46°48' W 071°12'0 0.0 060 / 111030.6 -0.0 1.2
2017-Dec-05 00:00N 46°48' W 071°12'0 0.0 050 / 131031.0 -0.5 0.7
2017-Dec-04 21:00N 46°48' W 071°12'0 0.0 070 / 101031.8 0.2 1.4
2017-Dec-04 18:00N 46°48' W 071°12'0 0.0 080 / 71033.4 0.5 1.7
2017-Dec-04 15:00N 46°48' W 071°12'0 0.0 060 / 21033.8 -0.5 0.7
2017-Dec-04 12:00N 46°48' W 071°12'0 0.0 030 / 11031.9 -0.9 0.3
2017-Dec-04 09:00N 46°48' W 071°12'0 0.0 100 / 31030.5 0.2 1.4
2017-Dec-04 06:00N 46°48' W 071°12'0 0.0 080 / 51029.0 -0.1 1.1
2017-Dec-04 03:00N 46°48' W 071°12'0 0.0 070 / 61027.8 0.2 1.4
2017-Dec-04 00:00N 46°48' W 071°12'0 0.0 050 / 61026.6 -0.1 1.1
2017-Dec-03 21:00N 46°48' W 071°12'3411.4 060 / 81025.9 -0.0 1.2 3.6
2017-Dec-03 18:00N 47°12' W 070°36'4615.3 020 / 61025.5 -0.3 0.9 2.8
2017-Dec-03 15:00N 47°48' W 069°54'3612.0 360 / 71026.9 -0.7 0.5 2.2
2017-Dec-03 12:00N 48°18' W 069°24'6611.0 020 / 111026.0 -1.6-0.4 1.9
2017-Dec-03 06:00N 48°54' W 068°00'3612.2 050 / 101025.8 -1.0 0.2 1.6
2017-Dec-03 03:00N 49°18' W 067°18'3611.9 360 / 81026.4 -2.6-1.5 1.5
2017-Dec-03 00:00N 49°48' W 066°48'29 9.5 020 / 71026.6 -2.0-0.9 1.1
2017-Dec-02 21:00N 50°12' W 066°24'0 0.0 330 / 91025.9 -2.2-1.0
2017-Dec-02 18:00N 50°12' W 066°24'0 0.0 260 / 41024.7 -0.1 1.1
2017-Dec-02 15:00N 50°12' W 066°24'0 0.0
2017-Dec-02 12:00N 50°12' W 066°24'17 5.6 300 / 61025.5 -3.3-2.2 2.2
2017-Dec-02 09:00N 50°00' W 066°06'30 9.9 300 / 101023.3 -0.3 0.9 1.6
2017-Dec-02 06:00N 49°48' W 065°24'26 8.7 310 / 181021.1 0.1 1.3 1.7
2017-Dec-02 03:00N 49°36' W 064°48'30 9.9 290 / 121021.0 1.1 2.3 1.8
2017-Dec-02 00:00N 49°24' W 064°06'30 9.9 290 / 91020.0 1.1 2.3 1.9
2017-Dec-01 21:00N 49°06' W 063°30'26 8.8 220 / 41018.4 1.4 2.6 1.9
2017-Dec-01 18:00N 48°54' W 062°54'27 8.9 210 / 151016.9 2.3 3.5 2.7
2017-Dec-01 15:00N 48°42' W 062°18'   180 / 211018.3 3.2 4.4 3.4
Track history (hours):
 
Tides and Currents Weather Stations Pressure Air Temp Water Temp Dewpoint Dewpoint Depression Visibility Wind Speed Wind Dir Waves Ship Positions

Maria Desgagnes

Last reported at 2017-Dec-11 15:00 UTC. Time now 2017-Dec-14 09:50 UTC.
Position N 49°12' W 059°06'.

Length 120 m; draft 7.3 m.

Type: Ship. MMSI: 316285000.

Wind from 250 at 28 knots

Barometer 1010.8 mb
Air temperature -1.9 ° C
Dewpoint -0.8 ° C
Water temperature 3.9 ° C

Date/timePositionNaut miles runAvg speedWind from/ knotsBaromVisibWave heightAir tempDewpointWater temp
2017-Dec-11 15:00N 49°12' W 059°06'12 3.9 250 / 281010.8 -1.9-0.8 3.9
2017-Dec-11 12:00N 49°12' W 058°48'12 3.9 270 / 301007.0 -1.0 0.2 4.2
2017-Dec-11 09:00N 49°12' W 058°30'6 6.7 250 / 261004.9 -0.1 1.1 4.5
2017-Dec-11 08:04N 49°09' W 058°21'1 9.1
2017-Dec-11 07:59N 49°09' W 058°21'712.7
2017-Dec-11 07:24N 49°05' W 058°12'512.8
2017-Dec-11 07:00N 49°01' W 058°06'4 8.8
2017-Dec-11 06:30N 48°58' W 058°01'0 0.4
2017-Dec-11 06:00N 48°58' W 058°01'4264.5
2017-Dec-11 06:00N 48°54' W 058°00'4 7.8 290 / 71004.7 0.3 1.5
2017-Dec-11 05:29N 48°58' W 058°01'0 0.0
2017-Dec-11 04:59N 48°58' W 058°01'0 0.0
2017-Dec-11 04:29N 48°58' W 058°01'0 0.0
2017-Dec-11 03:59N 48°58' W 058°01'0 0.0
2017-Dec-11 03:29N 48°58' W 058°01'4 7.8
2017-Dec-11 03:00N 48°54' W 058°00'43504.9 270 / 81001.1 0.3 1.5
2017-Dec-11 02:59N 48°58' W 058°01'0 0.0
2017-Dec-11 02:29N 48°58' W 058°01'0 0.0
2017-Dec-11 01:59N 48°58' W 058°01'0 0.0
2017-Dec-11 01:29N 48°58' W 058°01'0 0.0
2017-Dec-11 00:59N 48°58' W 058°01'0 0.0
2017-Dec-11 00:29N 48°58' W 058°01'4 7.8
2017-Dec-11 00:00N 48°54' W 058°00'43504.9 290 / 7996.3 0.5 1.7
2017-Dec-10 23:59N 48°58' W 058°01'0 0.0
2017-Dec-10 23:29N 48°58' W 058°01'0 0.0
2017-Dec-10 22:59N 48°58' W 058°01'0 0.0
2017-Dec-10 22:29N 48°58' W 058°01'0 0.0
2017-Dec-10 21:59N 48°58' W 058°01'0 0.0
2017-Dec-10 21:29N 48°58' W 058°01'4 7.8
2017-Dec-10 21:00N 48°54' W 058°00'42803.9 260 / 12988.8 2.0 3.3
2017-Dec-10 20:59N 48°58' W 058°01'0 0.0
2017-Dec-10 20:29N 48°58' W 058°01'0 0.4
2017-Dec-10 20:00N 48°58' W 058°00'2 3.5
2017-Dec-10 19:30N 48°59' W 058°03'4 8.6
2017-Dec-10 19:00N 49°02' W 058°07'1110.4
2017-Dec-10 18:00N 49°12' W 058°12'7 2.4 200 / 23979.7 10.011.3 4.7
2017-Dec-10 15:00N 49°18' W 058°18'0 0.0 140 / 43980.8 5.5 6.8
2017-Dec-10 14:00N 49°18' W 058°18'0 0.0 140 / 43981.3 5.6 6.9 4.9
2017-Dec-10 12:00N 49°18' W 058°18'0 0.0 120 / 39991.1 4.1 5.3
2017-Dec-10 09:00N 49°18' W 058°18'0 0.0 120 / 301000.8 2.5 3.7
2017-Dec-10 06:00N 49°18' W 058°18'4013.2 110 / 191009.9 -1.0 0.2 4.4
2017-Dec-10 03:00N 49°24' W 059°18'4314.4 130 / 131014.4 1.6 2.9 3.6
2017-Dec-10 00:00N 49°30' W 060°24'3913.1 180 / 131016.6 1.5 2.7 3.5
2017-Dec-09 21:00N 49°36' W 061°24'3712.3 200 / 191016.4 1.5 2.7 3.2
2017-Dec-09 18:00N 49°48' W 062°18'28 9.2 210 / 171015.0 1.3 2.6 2.5
2017-Dec-09 15:00N 49°54' W 063°00'27 9.0 190 / 161015.1 -1.3-0.1 2.3
2017-Dec-09 12:00N 49°54' W 063°42'28 9.2 170 / 121013.9 -3.0-1.9 1.3
2017-Dec-09 09:00N 50°00' W 064°24'3110.3 230 / 51013.3 -2.5-1.3 1.2
2017-Dec-09 06:00N 50°00' W 065°12'4615.4 280 / 111012.5 -3.2-2.1 1.3
2017-Dec-09 03:00N 50°00' W 066°24'15 5.1 280 / 161011.9 -4.3-3.2 1.4
2017-Dec-09 00:00N 50°00' W 066°48'0 0.0 250 / 71010.6 -4.5-3.4
2017-Dec-08 21:00N 50°00' W 066°48'0 0.0 240 / 41009.3 -3.1-2.0
2017-Dec-08 18:00N 50°00' W 066°48'0 0.0 260 / 61008.3 -4.0-2.9
2017-Dec-08 15:00N 50°00' W 066°48'0 0.0 280 / 31009.1 -6.4-5.3
2017-Dec-08 12:00N 50°00' W 066°48'0 0.0 280 / 51007.7 -8.2-7.2
2017-Dec-08 09:00N 50°00' W 066°48'0 0.0 280 / 21006.2 -6.6-5.5
2017-Dec-08 06:00N 50°00' W 066°48'25 8.4 260 / 61004.8 -6.3-5.2 1.8
2017-Dec-08 03:00N 49°36' W 067°00'3612.1 240 / 131004.8 -3.7-2.6 1.5
2017-Dec-08 00:00N 49°12' W 067°42'4013.2 260 / 191005.2 -1.9-0.8 1.5
2017-Dec-07 21:00N 48°48' W 068°30'4013.3 240 / 221004.6 -0.9 0.3 1.6
2017-Dec-07 18:00N 48°24' W 069°18'4816.1 270 / 151005.1 -0.3 0.9 1.9
2017-Dec-07 15:00N 47°42' W 069°54'4113.8 240 / 191006.7 -0.2 1.0 2.2
2017-Dec-07 12:00N 47°12' W 070°36'3411.4 210 / 151005.8 0.5 1.7 2.7
2017-Dec-07 09:00N 46°48' W 071°12'0 0.0 230 / 121006.5 0.9 2.1
2017-Dec-07 06:00N 46°48' W 071°12'0 0.0 220 / 161006.1 1.0 2.2
2017-Dec-07 03:00N 46°48' W 071°12'0 0.0 230 / 141005.8 1.5 2.7
2017-Dec-07 00:00N 46°48' W 071°12'0 0.0 240 / 81006.9 1.1 2.3
2017-Dec-06 21:00N 46°48' W 071°12'0 0.0 220 / 131006.6 1.9 3.1
2017-Dec-06 18:00N 46°48' W 071°12'0 0.0 240 / 111006.3 2.5 3.8
2017-Dec-06 15:00N 46°48' W 071°12'0 0.0 240 / 171007.1 2.5 3.7
2017-Dec-06 12:00N 46°48' W 071°12'0 0.0 230 / 201005.3 3.4 4.7
2017-Dec-06 09:00N 46°48' W 071°12'0 0.0 220 / 161003.8 5.6 6.9 3.9
2017-Dec-06 06:00N 46°48' W 071°12'0 0.0 050 / 61002.1 5.2 6.4
2017-Dec-06 03:00N 46°48' W 071°12'0 0.0 060 / 91006.7 4.9 6.1
2017-Dec-06 00:00N 46°48' W 071°12'0 0.0 060 / 61009.7 4.7 6.0
2017-Dec-05 21:00N 46°48' W 071°12'0 0.0 070 / 81011.9 3.3 4.5
2017-Dec-05 18:00N 46°48' W 071°12'0 0.0 060 / 61016.8 2.7 3.9
2017-Dec-05 15:00N 46°48' W 071°12'0 0.0 050 / 111021.2 0.8 2.0
2017-Dec-05 12:00N 46°48' W 071°12'0 0.0 050 / 141023.6 -0.2 1.0
2017-Dec-05 09:00N 46°48' W 071°12'0 0.0 050 / 181025.7 0.5 1.7
2017-Dec-05 06:00N 46°48' W 071°12'0 0.0 050 / 151027.3 0.2 1.4
2017-Dec-05 03:00N 46°48' W 071°12'0 0.0 060 / 111030.6 -0.0 1.2
2017-Dec-05 00:00N 46°48' W 071°12'0 0.0 050 / 131031.0 -0.5 0.7
2017-Dec-04 21:00N 46°48' W 071°12'0 0.0 070 / 101031.8 0.2 1.4
2017-Dec-04 18:00N 46°48' W 071°12'0 0.0 080 / 71033.4 0.5 1.7
2017-Dec-04 15:00N 46°48' W 071°12'0 0.0 060 / 21033.8 -0.5 0.7
2017-Dec-04 12:00N 46°48' W 071°12'0 0.0 030 / 11031.9 -0.9 0.3
2017-Dec-04 09:00N 46°48' W 071°12'0 0.0 100 / 31030.5 0.2 1.4
2017-Dec-04 06:00N 46°48' W 071°12'0 0.0 080 / 51029.0 -0.1 1.1
2017-Dec-04 03:00N 46°48' W 071°12'0 0.0 070 / 61027.8 0.2 1.4
2017-Dec-04 00:00N 46°48' W 071°12'0 0.0 050 / 61026.6 -0.1 1.1
2017-Dec-03 21:00N 46°48' W 071°12'3411.4 060 / 81025.9 -0.0 1.2 3.6
2017-Dec-03 18:00N 47°12' W 070°36'4615.3 020 / 61025.5 -0.3 0.9 2.8
2017-Dec-03 15:00N 47°48' W 069°54'3612.0 360 / 71026.9 -0.7 0.5 2.2
2017-Dec-03 12:00N 48°18' W 069°24'6611.0 020 / 111026.0 -1.6-0.4 1.9
2017-Dec-03 06:00N 48°54' W 068°00'3612.2 050 / 101025.8 -1.0 0.2 1.6
2017-Dec-03 03:00N 49°18' W 067°18'3611.9 360 / 81026.4 -2.6-1.5 1.5
2017-Dec-03 00:00N 49°48' W 066°48'29 9.5 020 / 71026.6 -2.0-0.9 1.1
2017-Dec-02 21:00N 50°12' W 066°24'0 0.0 330 / 91025.9 -2.2-1.0
2017-Dec-02 18:00N 50°12' W 066°24'0 0.0 260 / 41024.7 -0.1 1.1
2017-Dec-02 15:00N 50°12' W 066°24'0 0.0
2017-Dec-02 12:00N 50°12' W 066°24'17 5.6 300 / 61025.5 -3.3-2.2 2.2
2017-Dec-02 09:00N 50°00' W 066°06'30 9.9 300 / 101023.3 -0.3 0.9 1.6
2017-Dec-02 06:00N 49°48' W 065°24'26 8.7 310 / 181021.1 0.1 1.3 1.7
2017-Dec-02 03:00N 49°36' W 064°48'30 9.9 290 / 121021.0 1.1 2.3 1.8
2017-Dec-02 00:00N 49°24' W 064°06'30 9.9 290 / 91020.0 1.1 2.3 1.9
2017-Dec-01 21:00N 49°06' W 063°30'26 8.8 220 / 41018.4 1.4 2.6 1.9
2017-Dec-01 18:00N 48°54' W 062°54'27 8.9 210 / 151016.9 2.3 3.5 2.7
2017-Dec-01 15:00N 48°42' W 062°18'   180 / 211018.3 3.2 4.4 3.4

Dump ship's entire track history